createdAt,value
2018-06-17T00:00:44.448Z,1009.66
2018-06-17T00:01:44.423Z,1009.67
2018-06-17T00:02:44.413Z,1009.66
2018-06-17T00:03:44.396Z,1009.70
2018-06-17T00:04:44.385Z,1009.73
2018-06-17T00:05:44.366Z,1009.73
2018-06-17T00:06:44.351Z,1009.70
2018-06-17T00:07:44.339Z,1009.73
2018-06-17T00:08:44.325Z,1009.67
2018-06-17T00:09:44.313Z,1009.67
2018-06-17T00:10:44.350Z,1009.65
2018-06-17T00:11:44.290Z,1009.65
2018-06-17T00:12:44.268Z,1009.67
2018-06-17T00:13:44.262Z,1009.68
2018-06-17T00:14:44.240Z,1009.67
2018-06-17T00:15:44.229Z,1009.66
2018-06-17T00:16:44.218Z,1009.65
2018-06-17T00:17:44.208Z,1009.66
2018-06-17T00:18:44.200Z,1009.66
2018-06-17T00:19:44.170Z,1009.66
2018-06-17T00:20:44.154Z,1009.68
2018-06-17T00:21:44.143Z,1009.70
2018-06-17T00:22:44.128Z,1009.71
2018-06-17T00:23:44.122Z,1009.71
2018-06-17T00:24:44.098Z,1009.69
2018-06-17T00:25:44.086Z,1009.67
2018-06-17T00:26:44.169Z,1009.69
2018-06-17T00:27:44.059Z,1009.68
2018-06-17T00:28:44.043Z,1009.65
2018-06-17T00:29:44.029Z,1009.67
2018-06-17T00:30:44.021Z,1009.66
2018-06-17T00:31:43.999Z,1009.64
2018-06-17T00:32:43.986Z,1009.64
2018-06-17T00:33:43.975Z,1009.65
2018-06-17T00:34:43.956Z,1009.63
2018-06-17T00:35:43.942Z,1009.63
2018-06-17T00:36:43.931Z,1009.67
2018-06-17T00:37:43.915Z,1009.67
2018-06-17T00:38:43.900Z,1009.65
2018-06-17T00:39:43.888Z,1009.64
2018-06-17T00:40:43.876Z,1009.68
2018-06-17T00:41:43.859Z,1009.67
2018-06-17T00:42:43.942Z,1009.68
2018-06-17T00:43:43.829Z,1009.65
2018-06-17T00:44:43.817Z,1009.66
2018-06-17T00:45:43.803Z,1009.68
2018-06-17T00:46:43.790Z,1009.67
2018-06-17T00:47:43.783Z,1009.69
2018-06-17T00:48:43.758Z,1009.71
2018-06-17T00:49:43.749Z,1009.66
2018-06-17T00:50:43.728Z,1009.68
2018-06-17T00:51:43.721Z,1009.67
2018-06-17T00:52:43.701Z,1009.69
2018-06-17T00:53:43.687Z,1009.67
2018-06-17T00:54:43.679Z,1009.70
2018-06-17T00:55:43.659Z,1009.68
2018-06-17T00:56:43.646Z,1009.68
2018-06-17T00:57:43.630Z,1009.64
2018-06-17T00:58:43.615Z,1009.64
2018-06-17T00:59:43.600Z,1009.63
2018-06-17T01:00:43.589Z,1009.63
2018-06-17T01:01:43.576Z,1009.64
2018-06-17T01:02:43.566Z,1009.64
2018-06-17T01:03:43.556Z,1009.64
2018-06-17T01:04:43.529Z,1009.66
2018-06-17T01:05:43.517Z,1009.66
2018-06-17T01:06:43.504Z,1009.68
2018-06-17T01:07:43.492Z,1009.71
2018-06-17T01:08:43.478Z,1009.69
2018-06-17T01:09:43.508Z,1009.68
2018-06-17T01:10:43.444Z,1009.70
2018-06-17T01:11:43.429Z,1009.73
2018-06-17T01:12:43.418Z,1009.74
2018-06-17T01:13:43.400Z,1009.72
2018-06-17T01:14:43.385Z,1009.76
2018-06-17T01:15:43.375Z,1009.74
2018-06-17T01:16:43.359Z,1009.71
2018-06-17T01:17:43.344Z,1009.72
2018-06-17T01:18:43.328Z,1009.71
2018-06-17T01:19:43.318Z,1009.71
2018-06-17T01:20:43.298Z,1009.73
2018-06-17T01:21:43.299Z,1009.68
2018-06-17T01:22:43.277Z,1009.70
2018-06-17T01:23:43.258Z,1009.71
2018-06-17T01:24:43.242Z,1009.72
2018-06-17T01:25:43.381Z,1009.73
2018-06-17T01:26:43.216Z,1009.72
2018-06-17T01:27:43.207Z,1009.74
2018-06-17T01:28:43.187Z,1009.75
2018-06-17T01:29:43.169Z,1009.77
2018-06-17T01:30:43.162Z,1009.77
2018-06-17T01:31:43.142Z,1009.79
2018-06-17T01:32:43.128Z,1009.75
2018-06-17T01:33:43.115Z,1009.74
2018-06-17T01:34:43.100Z,1009.78
2018-06-17T01:35:43.087Z,1009.79
2018-06-17T01:36:43.070Z,1009.77
2018-06-17T01:37:43.067Z,1009.76
2018-06-17T01:38:43.040Z,1009.79
2018-06-17T01:39:43.037Z,1009.77
2018-06-17T01:40:43.010Z,1009.79
2018-06-17T01:41:43.006Z,1009.82
2018-06-17T01:42:42.983Z,1009.78
2018-06-17T01:43:42.968Z,1009.73
2018-06-17T01:44:42.961Z,1009.73
2018-06-17T01:45:42.947Z,1009.72
2018-06-17T01:46:42.923Z,1009.71
2018-06-17T01:47:42.914Z,1009.71
2018-06-17T01:48:42.901Z,1009.72
2018-06-17T01:49:42.880Z,1009.72
2018-06-17T01:50:42.914Z,1009.73
2018-06-17T01:51:42.853Z,1009.72
2018-06-17T01:52:42.946Z,1009.74
2018-06-17T01:53:42.825Z,1009.79
2018-06-17T01:54:42.812Z,1009.78
2018-06-17T01:55:42.792Z,1009.82
2018-06-17T01:56:42.775Z,1009.81
2018-06-17T01:57:42.767Z,1009.81
2018-06-17T01:58:42.747Z,1009.77
2018-06-17T01:59:42.736Z,1009.81
2018-06-17T02:00:42.721Z,1009.82
2018-06-17T02:01:42.702Z,1009.79
2018-06-17T02:02:42.786Z,1009.81
2018-06-17T02:03:42.672Z,1009.81
2018-06-17T02:04:42.658Z,1009.81
2018-06-17T02:05:42.649Z,1009.79
2018-06-17T02:06:42.629Z,1009.83
2018-06-17T02:07:42.618Z,1009.78
2018-06-17T02:08:42.599Z,1009.79
2018-06-17T02:09:42.588Z,1009.77
2018-06-17T02:10:42.565Z,1009.78
2018-06-17T02:11:42.554Z,1009.76
2018-06-17T02:12:42.547Z,1009.75
2018-06-17T02:13:42.529Z,1009.78
2018-06-17T02:14:42.507Z,1009.74
2018-06-17T02:15:42.494Z,1009.73
2018-06-17T02:16:42.480Z,1009.70
2018-06-17T02:17:42.468Z,1009.76
2018-06-17T02:18:42.460Z,1009.77
2018-06-17T02:19:42.436Z,1009.72
2018-06-17T02:20:42.418Z,1009.75
2018-06-17T02:21:42.458Z,1009.74
2018-06-17T02:22:42.388Z,1009.72
2018-06-17T02:23:42.379Z,1009.73
2018-06-17T02:24:42.357Z,1009.74
2018-06-17T02:25:42.341Z,1009.73
2018-06-17T02:26:42.329Z,1009.76
2018-06-17T02:27:42.318Z,1009.76
2018-06-17T02:28:42.298Z,1009.77
2018-06-17T02:29:42.284Z,1009.76
2018-06-17T02:30:42.269Z,1009.76
2018-06-17T02:31:42.264Z,1009.77
2018-06-17T02:32:42.237Z,1009.78
2018-06-17T02:33:42.220Z,1009.75
2018-06-17T02:34:42.205Z,1009.78
2018-06-17T02:35:42.195Z,1009.80
2018-06-17T02:36:42.179Z,1009.81
2018-06-17T02:37:42.302Z,1009.80
2018-06-17T02:38:42.147Z,1009.84
2018-06-17T02:39:42.135Z,1009.84
2018-06-17T02:40:42.118Z,1009.87
2018-06-17T02:41:42.100Z,1009.88
2018-06-17T02:42:42.090Z,1009.89
2018-06-17T02:43:42.069Z,1009.87
2018-06-17T02:44:42.055Z,1009.87
2018-06-17T02:45:42.042Z,1009.86
2018-06-17T02:46:42.026Z,1009.84
2018-06-17T02:47:42.007Z,1009.84
2018-06-17T02:48:42.000Z,1009.84
2018-06-17T02:49:41.978Z,1009.86
2018-06-17T02:50:41.961Z,1009.88
2018-06-17T02:51:41.951Z,1009.86
2018-06-17T02:52:41.936Z,1009.86
2018-06-17T02:53:41.923Z,1009.89
2018-06-17T02:54:41.900Z,1009.85
2018-06-17T02:55:41.890Z,1009.85
2018-06-17T02:56:41.877Z,1009.86
2018-06-17T02:57:41.859Z,1009.84
2018-06-17T02:58:41.841Z,1009.84
2018-06-17T02:59:41.834Z,1009.87
2018-06-17T03:00:41.810Z,1009.89
2018-06-17T03:01:41.804Z,1009.88
2018-06-17T03:02:41.782Z,1009.85
2018-06-17T03:03:41.833Z,1009.90
2018-06-17T03:04:41.791Z,1009.85
2018-06-17T03:05:41.744Z,1009.89
2018-06-17T03:06:41.720Z,1009.84
2018-06-17T03:07:41.706Z,1009.84
2018-06-17T03:08:41.692Z,1009.82
2018-06-17T03:09:41.678Z,1009.77
2018-06-17T03:10:41.659Z,1009.75
2018-06-17T03:11:41.643Z,1009.77
2018-06-17T03:12:41.628Z,1009.80
2018-06-17T03:13:41.611Z,1009.84
2018-06-17T03:14:41.598Z,1009.87
2018-06-17T03:15:41.583Z,1009.90
2018-06-17T03:16:41.569Z,1009.92
2018-06-17T03:17:41.551Z,1009.90
2018-06-17T03:18:41.536Z,1009.91
2018-06-17T03:19:41.520Z,1009.92
2018-06-17T03:20:41.563Z,1009.91
2018-06-17T03:21:41.490Z,1009.91
2018-06-17T03:22:41.474Z,1009.93
2018-06-17T03:23:41.509Z,1009.96
2018-06-17T03:24:41.469Z,1009.97
2018-06-17T03:25:41.433Z,1009.93
2018-06-17T03:26:41.413Z,1009.95
2018-06-17T03:27:41.400Z,1009.96
2018-06-17T03:28:41.383Z,1009.93
2018-06-17T03:29:41.372Z,1009.92
2018-06-17T03:30:41.354Z,1009.97
2018-06-17T03:31:41.335Z,1009.89
2018-06-17T03:32:41.325Z,1009.88
2018-06-17T03:33:41.313Z,1009.89
2018-06-17T03:34:41.290Z,1009.87
2018-06-17T03:35:41.277Z,1009.83
2018-06-17T03:36:41.260Z,1009.85
2018-06-17T03:37:41.249Z,1009.86
2018-06-17T03:38:41.228Z,1009.88
2018-06-17T03:39:41.213Z,1009.87
2018-06-17T03:40:41.201Z,1009.90
2018-06-17T03:41:41.184Z,1009.88
2018-06-17T03:42:41.168Z,1009.93
2018-06-17T03:43:41.152Z,1009.92
2018-06-17T03:44:41.150Z,1009.94
2018-06-17T03:45:41.120Z,1009.90
2018-06-17T03:46:41.104Z,1009.93
2018-06-17T03:47:41.189Z,1009.89
2018-06-17T03:48:41.073Z,1009.89
2018-06-17T03:49:41.062Z,1009.91
2018-06-17T03:50:41.051Z,1009.91
2018-06-17T03:51:41.030Z,1009.91
2018-06-17T03:52:41.016Z,1009.93
2018-06-17T03:53:41.002Z,1009.89
2018-06-17T03:54:40.979Z,1009.90
2018-06-17T03:55:41.115Z,1009.89
2018-06-17T03:56:40.949Z,1009.92
2018-06-17T03:57:40.942Z,1009.89
2018-06-17T03:58:40.920Z,1009.95
2018-06-17T03:59:40.905Z,1009.92
2018-06-17T04:00:40.890Z,1009.94
2018-06-17T04:01:40.878Z,1009.98
2018-06-17T04:02:40.856Z,1010.01
2018-06-17T04:03:40.952Z,1010.01
2018-06-17T04:04:40.827Z,1010.03
2018-06-17T04:05:40.815Z,1009.99
2018-06-17T04:06:40.798Z,1010.02
2018-06-17T04:07:40.779Z,1010.03
2018-06-17T04:08:40.774Z,1010.01
2018-06-17T04:09:40.760Z,1010.01
2018-06-17T04:10:40.749Z,1010.04
2018-06-17T04:11:40.720Z,1010.04
2018-06-17T04:12:40.709Z,1010.01
2018-06-17T04:13:40.691Z,1010.00
2018-06-17T04:14:40.676Z,1009.99
2018-06-17T04:15:40.661Z,1010.00
2018-06-17T04:16:40.643Z,1009.99
2018-06-17T04:17:40.632Z,1009.99
2018-06-17T04:18:40.614Z,1010.00
2018-06-17T04:19:40.601Z,1010.02
2018-06-17T04:20:40.582Z,1010.02
2018-06-17T04:21:40.569Z,1010.00
2018-06-17T04:22:40.601Z,1010.00
2018-06-17T04:23:40.540Z,1010.01
2018-06-17T04:24:40.520Z,1010.01
2018-06-17T04:25:40.557Z,1010.01
2018-06-17T04:26:40.495Z,1010.01
2018-06-17T04:27:40.485Z,1009.95
2018-06-17T04:28:40.460Z,1010.01
2018-06-17T04:29:40.454Z,1009.99
2018-06-17T04:30:40.434Z,1010.01
2018-06-17T04:31:40.420Z,1010.05
2018-06-17T04:32:40.416Z,1010.01
2018-06-17T04:33:40.387Z,1009.96
2018-06-17T04:34:40.367Z,1009.94
2018-06-17T04:35:40.457Z,1009.95
2018-06-17T04:36:40.340Z,1009.97
2018-06-17T04:37:40.324Z,1009.99
2018-06-17T04:38:40.312Z,1010.01
2018-06-17T04:39:40.300Z,1009.99
2018-06-17T04:40:40.279Z,1009.99
2018-06-17T04:41:40.261Z,1009.97
2018-06-17T04:42:40.249Z,1010.03
2018-06-17T04:43:40.233Z,1010.07
2018-06-17T04:44:40.218Z,1010.08
2018-06-17T04:45:40.199Z,1010.06
2018-06-17T04:46:40.284Z,1010.06
2018-06-17T04:47:40.172Z,1010.04
2018-06-17T04:48:40.160Z,1010.03
2018-06-17T04:49:40.140Z,1009.99
2018-06-17T04:50:40.127Z,1009.98
2018-06-17T04:51:40.110Z,1009.98
2018-06-17T04:52:40.097Z,1009.97
2018-06-17T04:53:40.079Z,1009.97
2018-06-17T04:54:40.062Z,1009.94
2018-06-17T04:55:40.053Z,1009.99
2018-06-17T04:56:40.033Z,1010.00
2018-06-17T04:57:40.023Z,1009.99
2018-06-17T04:58:40.006Z,1010.04
2018-06-17T04:59:39.988Z,1010.04
2018-06-17T05:00:39.971Z,1010.12
2018-06-17T05:01:39.963Z,1010.11
2018-06-17T05:02:39.947Z,1010.15
2018-06-17T05:03:39.924Z,1010.11
2018-06-17T05:04:39.910Z,1010.11
2018-06-17T05:05:39.944Z,1010.09
2018-06-17T05:06:39.880Z,1010.07
2018-06-17T05:07:39.867Z,1010.05
2018-06-17T05:08:39.850Z,1010.07
2018-06-17T05:09:39.831Z,1010.10
2018-06-17T05:10:39.819Z,1010.06
2018-06-17T05:11:39.803Z,1010.06
2018-06-17T05:12:39.787Z,1010.06
2018-06-17T05:13:39.773Z,1010.03
2018-06-17T05:14:39.764Z,1010.06
2018-06-17T05:15:39.741Z,1010.04
2018-06-17T05:16:39.729Z,1010.08
2018-06-17T05:17:39.710Z,1010.05
2018-06-17T05:18:39.698Z,1010.09
2018-06-17T05:19:39.682Z,1010.07
2018-06-17T05:20:39.670Z,1010.07
2018-06-17T05:21:39.758Z,1010.06
2018-06-17T05:22:39.633Z,1010.09
2018-06-17T05:23:39.620Z,1010.08
2018-06-17T05:24:39.653Z,1010.05
2018-06-17T05:25:39.590Z,1010.08
2018-06-17T05:26:39.579Z,1010.08
2018-06-17T05:27:39.566Z,1010.11
2018-06-17T05:28:39.543Z,1010.06
2018-06-17T05:29:39.532Z,1010.04
2018-06-17T05:30:39.512Z,1010.04
2018-06-17T05:31:39.496Z,1010.04
2018-06-17T05:32:39.480Z,1010.03
2018-06-17T05:33:39.490Z,1010.02
2018-06-17T05:34:39.451Z,1010.02
2018-06-17T05:35:39.446Z,1010.07
2018-06-17T05:36:39.453Z,1010.09
2018-06-17T05:37:39.407Z,1010.08
2018-06-17T05:38:39.390Z,1010.08
2018-06-17T05:39:39.375Z,1010.09
2018-06-17T05:40:39.362Z,1010.07
2018-06-17T05:41:39.341Z,1010.12
2018-06-17T05:42:39.329Z,1010.13
2018-06-17T05:43:39.319Z,1010.14
2018-06-17T05:44:39.297Z,1010.12
2018-06-17T05:45:39.481Z,1010.11
2018-06-17T05:46:39.265Z,1010.13
2018-06-17T05:47:39.253Z,1010.12
2018-06-17T05:48:39.278Z,1010.14
2018-06-17T05:49:39.219Z,1010.20
2018-06-17T05:50:39.204Z,1010.16
2018-06-17T05:51:39.240Z,1010.15
2018-06-17T05:52:39.180Z,1010.17
2018-06-17T05:53:39.160Z,1010.13
2018-06-17T05:54:39.146Z,1010.15
2018-06-17T05:55:39.150Z,1010.08
2018-06-17T05:56:39.110Z,1010.14
2018-06-17T05:57:39.099Z,1010.07
2018-06-17T05:58:39.083Z,1010.06
2018-06-17T05:59:39.068Z,1010.11
2018-06-17T06:00:39.050Z,1010.13
2018-06-17T06:01:39.034Z,1010.09
2018-06-17T06:02:39.022Z,1010.11
2018-06-17T06:03:39.004Z,1010.13
2018-06-17T06:04:39.034Z,1010.12
2018-06-17T06:05:38.971Z,1010.15
2018-06-17T06:06:38.957Z,1010.17
2018-06-17T06:07:38.990Z,1010.14
2018-06-17T06:08:38.933Z,1010.13
2018-06-17T06:09:38.913Z,1010.12
2018-06-17T06:10:38.894Z,1010.09
2018-06-17T06:11:38.879Z,1010.13
2018-06-17T06:12:38.867Z,1010.14
2018-06-17T06:13:38.848Z,1010.17
2018-06-17T06:14:38.837Z,1010.17
2018-06-17T06:15:38.819Z,1010.16
2018-06-17T06:16:38.808Z,1010.17
2018-06-17T06:17:38.790Z,1010.16
2018-06-17T06:18:38.774Z,1010.18
2018-06-17T06:19:38.758Z,1010.17
2018-06-17T06:20:38.747Z,1010.19
2018-06-17T06:21:38.729Z,1010.17
2018-06-17T06:22:38.709Z,1010.20
2018-06-17T06:23:38.695Z,1010.17
2018-06-17T06:24:38.722Z,1010.23
2018-06-17T06:25:38.674Z,1010.23
2018-06-17T06:26:38.663Z,1010.20
2018-06-17T06:27:38.640Z,1010.23
2018-06-17T06:28:38.656Z,1010.23
2018-06-17T06:29:38.608Z,1010.24
2018-06-17T06:30:38.592Z,1010.23
2018-06-17T06:31:38.663Z,1010.25
2018-06-17T06:32:38.561Z,1010.22
2018-06-17T06:33:38.545Z,1010.30
2018-06-17T06:34:38.582Z,1010.28
2018-06-17T06:35:38.514Z,1010.29
2018-06-17T06:36:38.497Z,1010.30
2018-06-17T06:37:38.486Z,1010.28
2018-06-17T06:38:38.468Z,1010.23
2018-06-17T06:39:38.452Z,1010.25
2018-06-17T06:40:38.438Z,1010.27
2018-06-17T06:41:38.421Z,1010.27
2018-06-17T06:42:38.422Z,1010.31
2018-06-17T06:43:38.393Z,1010.33
2018-06-17T06:44:38.377Z,1010.29
2018-06-17T06:45:38.367Z,1010.28
2018-06-17T06:46:38.350Z,1010.32
2018-06-17T06:47:38.431Z,1010.34
2018-06-17T06:48:38.320Z,1010.31
2018-06-17T06:49:38.303Z,1010.29
2018-06-17T06:50:38.389Z,1010.32
2018-06-17T06:51:38.276Z,1010.31
2018-06-17T06:52:38.259Z,1010.33
2018-06-17T06:53:38.251Z,1010.31
2018-06-17T06:54:38.231Z,1010.33
2018-06-17T06:55:38.212Z,1010.34
2018-06-17T06:56:38.198Z,1010.36
2018-06-17T06:57:38.190Z,1010.34
2018-06-17T06:58:38.168Z,1010.35
2018-06-17T06:59:38.151Z,1010.37
2018-06-17T07:00:38.143Z,1010.41
2018-06-17T07:01:38.126Z,1010.40
2018-06-17T07:02:38.109Z,1010.42
2018-06-17T07:03:38.094Z,1010.42
2018-06-17T07:04:38.077Z,1010.50
2018-06-17T07:05:38.075Z,1010.43
2018-06-17T07:06:38.096Z,1010.47
2018-06-17T07:07:38.036Z,1010.50
2018-06-17T07:08:38.016Z,1010.47
2018-06-17T07:09:38.001Z,1010.51
2018-06-17T07:10:37.986Z,1010.45
2018-06-17T07:11:37.971Z,1010.55
2018-06-17T07:12:37.955Z,1010.50
2018-06-17T07:13:37.950Z,1010.49
2018-06-17T07:14:37.972Z,1010.54
2018-06-17T07:15:37.910Z,1010.52
2018-06-17T07:16:37.895Z,1010.49
2018-06-17T07:17:37.886Z,1010.49
2018-06-17T07:18:37.864Z,1010.52
2018-06-17T07:19:37.848Z,1010.53
2018-06-17T07:20:37.836Z,1010.55
2018-06-17T07:21:37.820Z,1010.53
2018-06-17T07:22:37.815Z,1010.53
2018-06-17T07:23:37.788Z,1010.47
2018-06-17T07:24:37.780Z,1010.53
2018-06-17T07:25:37.760Z,1010.48
2018-06-17T07:26:37.747Z,1010.56
2018-06-17T07:27:37.732Z,1010.54
2018-06-17T07:28:37.715Z,1010.55
2018-06-17T07:29:37.698Z,1010.56
2018-06-17T07:30:37.837Z,1010.63
2018-06-17T07:31:37.671Z,1010.68
2018-06-17T07:32:37.703Z,1010.71
2018-06-17T07:33:37.699Z,1010.64
2018-06-17T07:34:37.635Z,1010.70
2018-06-17T07:35:37.620Z,1010.70
2018-06-17T07:36:37.604Z,1010.69
2018-06-17T07:37:37.580Z,1010.71
2018-06-17T07:38:37.565Z,1010.74
2018-06-17T07:39:37.561Z,1010.72
2018-06-17T07:40:37.541Z,1010.76
2018-06-17T07:41:37.521Z,1010.80
2018-06-17T07:42:37.506Z,1010.77
2018-06-17T07:43:37.491Z,1010.78
2018-06-17T07:44:37.484Z,1010.80
2018-06-17T07:45:37.467Z,1010.80
2018-06-17T07:46:37.446Z,1010.75
2018-06-17T07:47:37.454Z,1010.76
2018-06-17T07:48:37.429Z,1010.73
2018-06-17T07:49:37.411Z,1010.73
2018-06-17T07:50:37.388Z,1010.75
2018-06-17T07:51:37.372Z,1010.78
2018-06-17T07:52:37.359Z,1010.76
2018-06-17T07:53:37.348Z,1010.77
2018-06-17T07:54:37.338Z,1010.78
2018-06-17T07:55:37.320Z,1010.81
2018-06-17T07:56:37.314Z,1010.78
2018-06-17T07:57:37.293Z,1010.80
2018-06-17T07:58:37.270Z,1010.79
2018-06-17T07:59:37.260Z,1010.76
2018-06-17T08:00:37.247Z,1010.87
2018-06-17T08:01:37.231Z,1010.77
2018-06-17T08:02:37.216Z,1010.81
2018-06-17T08:03:37.200Z,1010.84
2018-06-17T08:04:37.213Z,1010.79
2018-06-17T08:05:37.171Z,1010.84
2018-06-17T08:06:37.159Z,1010.89
2018-06-17T08:07:37.146Z,1010.89
2018-06-17T08:08:37.124Z,1010.87
2018-06-17T08:09:37.112Z,1010.90
2018-06-17T08:10:37.096Z,1010.88
2018-06-17T08:11:37.093Z,1010.84
2018-06-17T08:12:37.071Z,1010.91
2018-06-17T08:13:37.064Z,1010.87
2018-06-17T08:14:37.049Z,1010.76
2018-06-17T08:15:37.026Z,1010.85
2018-06-17T08:16:37.114Z,1010.95
2018-06-17T08:17:37.003Z,1010.92
2018-06-17T08:18:36.978Z,1010.96
2018-06-17T08:19:36.968Z,1010.95
2018-06-17T08:20:36.954Z,1010.94
2018-06-17T08:21:36.936Z,1010.97
2018-06-17T08:22:36.939Z,1010.89
2018-06-17T08:23:36.909Z,1010.92
2018-06-17T08:24:36.900Z,1010.97
2018-06-17T08:25:36.887Z,1010.90
2018-06-17T08:26:36.878Z,1010.92
2018-06-17T08:27:36.859Z,1010.95
2018-06-17T08:28:36.839Z,1011.01
2018-06-17T08:29:36.834Z,1011.00
2018-06-17T08:30:36.811Z,1011.06
2018-06-17T08:31:36.796Z,1010.96
2018-06-17T08:32:36.940Z,1010.98
2018-06-17T08:33:36.767Z,1010.97
2018-06-17T08:34:36.755Z,1010.92
2018-06-17T08:35:36.790Z,1010.98
2018-06-17T08:36:36.722Z,1010.94
2018-06-17T08:37:36.712Z,1010.96
2018-06-17T08:38:36.698Z,1010.98
2018-06-17T08:39:36.689Z,1011.00
2018-06-17T08:40:36.682Z,1010.98
2018-06-17T08:41:36.653Z,1010.92
2018-06-17T08:42:36.643Z,1010.92
2018-06-17T08:43:36.627Z,1010.91
2018-06-17T08:44:36.611Z,1010.91
2018-06-17T08:45:36.598Z,1010.84
2018-06-17T08:46:36.580Z,1010.87
2018-06-17T08:47:36.569Z,1010.81
2018-06-17T08:48:36.556Z,1010.87
2018-06-17T08:49:36.541Z,1010.83
2018-06-17T08:50:36.533Z,1010.84
2018-06-17T08:51:36.519Z,1010.94
2018-06-17T08:52:36.500Z,1010.98
2018-06-17T08:53:36.494Z,1010.97
2018-06-17T08:54:36.481Z,1011.01
2018-06-17T08:55:36.460Z,1011.02
2018-06-17T08:56:36.494Z,1011.02
2018-06-17T08:57:36.432Z,1010.98
2018-06-17T08:58:36.415Z,1010.96
2018-06-17T08:59:36.402Z,1010.97
2018-06-17T09:00:36.400Z,1011.07
2018-06-17T09:01:36.375Z,1011.04
2018-06-17T09:02:36.369Z,1010.96
2018-06-17T09:03:36.350Z,1011.02
2018-06-17T09:04:36.331Z,1011.03
2018-06-17T09:05:36.318Z,1011.00
2018-06-17T09:06:36.309Z,1011.07
2018-06-17T09:07:36.294Z,1011.01
2018-06-17T09:08:36.273Z,1011.05
2018-06-17T09:09:36.260Z,1011.03
2018-06-17T09:10:36.248Z,1011.04
2018-06-17T09:11:36.229Z,1011.07
2018-06-17T09:12:36.223Z,1011.09
2018-06-17T09:13:36.202Z,1011.04
2018-06-17T09:14:36.184Z,1011.00
2018-06-17T09:15:36.279Z,1011.01
2018-06-17T09:16:36.163Z,1011.05
2018-06-17T09:17:36.145Z,1011.06
2018-06-17T09:18:36.130Z,1011.09
2018-06-17T09:19:36.114Z,1011.04
2018-06-17T09:20:36.106Z,1011.02
2018-06-17T09:21:36.093Z,1010.99
2018-06-17T09:22:36.081Z,1011.00
2018-06-17T09:23:36.069Z,1010.97
2018-06-17T09:24:36.054Z,1010.96
2018-06-17T09:25:36.030Z,1010.91
2018-06-17T09:26:36.020Z,1010.94
2018-06-17T09:27:36.000Z,1010.93
2018-06-17T09:28:35.997Z,1010.98
2018-06-17T09:29:35.983Z,1011.04
2018-06-17T09:30:35.959Z,1011.07
2018-06-17T09:31:35.980Z,1011.06
2018-06-17T09:32:35.934Z,1011.07
2018-06-17T09:33:35.915Z,1011.14
2018-06-17T09:34:35.937Z,1011.16
2018-06-17T09:35:35.898Z,1011.10
2018-06-17T09:36:35.876Z,1011.11
2018-06-17T09:37:35.862Z,1011.22
2018-06-17T09:38:35.848Z,1011.21
2018-06-17T09:39:35.834Z,1011.12
2018-06-17T09:40:35.816Z,1011.16
2018-06-17T09:41:35.803Z,1011.13
2018-06-17T09:42:35.800Z,1011.19
2018-06-17T09:43:35.776Z,1011.14
2018-06-17T09:44:35.761Z,1011.17
2018-06-17T09:45:35.752Z,1011.11
2018-06-17T09:46:35.731Z,1011.15
2018-06-17T09:47:35.736Z,1011.15
2018-06-17T09:48:35.707Z,1011.18
2018-06-17T09:49:35.693Z,1011.24
2018-06-17T09:50:35.681Z,1011.15
2018-06-17T09:51:35.682Z,1011.23
2018-06-17T09:52:35.653Z,1011.13
2018-06-17T09:53:35.640Z,1011.11
2018-06-17T09:54:35.620Z,1011.11
2018-06-17T09:55:35.618Z,1011.18
2018-06-17T09:56:35.592Z,1011.17
2018-06-17T09:57:35.582Z,1011.17
2018-06-17T09:58:35.649Z,1011.15
2018-06-17T09:59:35.553Z,1011.13
2018-06-17T10:00:35.541Z,1011.12
2018-06-17T10:01:35.539Z,1011.16
2018-06-17T10:02:35.507Z,1011.14
2018-06-17T10:03:35.497Z,1011.18
2018-06-17T10:04:35.480Z,1011.17
2018-06-17T10:05:35.466Z,1011.13
2018-06-17T10:06:35.457Z,1011.17
2018-06-17T10:07:35.435Z,1011.19
2018-06-17T10:08:35.420Z,1011.20
2018-06-17T10:09:35.406Z,1011.19
2018-06-17T10:10:35.395Z,1011.23
2018-06-17T10:11:35.378Z,1011.23
2018-06-17T10:12:35.369Z,1011.24
2018-06-17T10:13:35.354Z,1011.26
2018-06-17T10:14:35.340Z,1011.22
2018-06-17T10:15:35.321Z,1011.22
2018-06-17T10:16:35.311Z,1011.28
2018-06-17T10:17:35.307Z,1011.29
2018-06-17T10:18:35.291Z,1011.34
2018-06-17T10:19:35.269Z,1011.30
2018-06-17T10:20:35.254Z,1011.34
2018-06-17T10:21:35.242Z,1011.34
2018-06-17T10:22:35.228Z,1011.32
2018-06-17T10:23:35.291Z,1011.33
2018-06-17T10:24:35.199Z,1011.32
2018-06-17T10:25:35.193Z,1011.31
2018-06-17T10:26:35.173Z,1011.34
2018-06-17T10:27:35.156Z,1011.34
2018-06-17T10:28:35.141Z,1011.41
2018-06-17T10:29:35.140Z,1011.40
2018-06-17T10:30:35.228Z,1011.36
2018-06-17T10:31:35.105Z,1011.36
2018-06-17T10:32:35.089Z,1011.37
2018-06-17T10:33:35.119Z,1011.40
2018-06-17T10:34:35.062Z,1011.38
2018-06-17T10:35:35.045Z,1011.41
2018-06-17T10:36:35.029Z,1011.39
2018-06-17T10:37:35.015Z,1011.37
2018-06-17T10:38:35.004Z,1011.36
2018-06-17T10:39:34.989Z,1011.37
2018-06-17T10:40:34.978Z,1011.42
2018-06-17T10:41:34.959Z,1011.42
2018-06-17T10:42:34.949Z,1011.49
2018-06-17T10:43:35.004Z,1011.41
2018-06-17T10:44:34.918Z,1011.48
2018-06-17T10:45:34.904Z,1011.41
2018-06-17T10:46:34.886Z,1011.50
2018-06-17T10:47:34.885Z,1011.46
2018-06-17T10:48:34.862Z,1011.56
2018-06-17T10:49:34.847Z,1011.51
2018-06-17T10:50:34.880Z,1011.56
2018-06-17T10:51:34.819Z,1011.52
2018-06-17T10:52:34.810Z,1011.56
2018-06-17T10:53:34.791Z,1011.52
2018-06-17T10:54:34.789Z,1011.53
2018-06-17T10:55:34.857Z,1011.56
2018-06-17T10:56:34.752Z,1011.50
2018-06-17T10:57:34.737Z,1011.53
2018-06-17T10:58:34.719Z,1011.51
2018-06-17T10:59:34.709Z,1011.51
2018-06-17T11:00:34.690Z,1011.60
2018-06-17T11:01:34.681Z,1011.53
2018-06-17T11:02:34.671Z,1011.54
2018-06-17T11:03:34.648Z,1011.52
2018-06-17T11:04:34.636Z,1011.55
2018-06-17T11:05:34.776Z,1011.57
2018-06-17T11:06:34.611Z,1011.59
2018-06-17T11:07:34.599Z,1011.59
2018-06-17T11:08:34.579Z,1011.58
2018-06-17T11:09:34.567Z,1011.54
2018-06-17T11:10:34.552Z,1011.59
2018-06-17T11:11:34.536Z,1011.57
2018-06-17T11:12:34.527Z,1011.58
2018-06-17T11:13:34.623Z,1011.58
2018-06-17T11:14:34.499Z,1011.56
2018-06-17T11:15:34.479Z,1011.62
2018-06-17T11:16:34.479Z,1011.57
2018-06-17T11:17:34.455Z,1011.59
2018-06-17T11:18:34.445Z,1011.64
2018-06-17T11:19:34.451Z,1011.65
2018-06-17T11:20:34.415Z,1011.63
2018-06-17T11:21:34.401Z,1011.65
2018-06-17T11:22:34.400Z,1011.63
2018-06-17T11:23:34.370Z,1011.69
2018-06-17T11:24:34.368Z,1011.64
2018-06-17T11:25:34.339Z,1011.68
2018-06-17T11:26:34.364Z,1011.61
2018-06-17T11:27:34.325Z,1011.66
2018-06-17T11:28:34.300Z,1011.69
2018-06-17T11:29:34.286Z,1011.65
2018-06-17T11:30:34.278Z,1011.68
2018-06-17T11:31:34.255Z,1011.67
2018-06-17T11:32:34.257Z,1011.69
2018-06-17T11:33:34.234Z,1011.72
2018-06-17T11:34:34.221Z,1011.73
2018-06-17T11:35:34.206Z,1011.84
2018-06-17T11:36:34.187Z,1011.78
2018-06-17T11:37:34.173Z,1011.73
2018-06-17T11:38:34.164Z,1011.73
2018-06-17T11:39:34.149Z,1011.71
2018-06-17T11:40:34.136Z,1011.75
2018-06-17T11:41:34.129Z,1011.72
2018-06-17T11:42:34.104Z,1011.69
2018-06-17T11:43:34.094Z,1011.78
2018-06-17T11:44:34.164Z,1011.84
2018-06-17T11:45:34.076Z,1011.81
2018-06-17T11:46:34.054Z,1011.77
2018-06-17T11:47:34.038Z,1011.81
2018-06-17T11:48:34.026Z,1011.84
2018-06-17T11:49:34.009Z,1011.88
2018-06-17T11:50:34.000Z,1011.84
2018-06-17T11:51:33.981Z,1011.88
2018-06-17T11:52:33.968Z,1011.84
2018-06-17T11:53:33.953Z,1011.84
2018-06-17T11:54:33.938Z,1011.81
2018-06-17T11:55:33.933Z,1011.83
2018-06-17T11:56:33.922Z,1011.83
2018-06-17T11:57:33.897Z,1011.83
2018-06-17T11:58:33.892Z,1011.87
2018-06-17T11:59:33.873Z,1011.95
2018-06-17T12:00:33.856Z,1011.90
2018-06-17T12:01:33.846Z,1011.91
2018-06-17T12:02:33.829Z,1011.89
2018-06-17T12:03:33.830Z,1011.95
2018-06-17T12:04:33.811Z,1011.96
2018-06-17T12:05:33.783Z,1011.94